Current Weather

Gainesville Muni

Gainesville, Texas (KGLE)

Report from: Sunday, February 25, 2024 2:35 PM CST
Current time: Sunday, February 25, 2024 3:05 PM CST

Nearby weather – Weather history – Daily summaries
Weather forecast

Temperature27.6°C (81.7°F)
Heat index26.7°C (80.1°F)
Dew point3.0°C (37.4°F)
Winds 10 kts (5.1 m/s, 11.5 mph) West-Southwest (240°)
Visibility10 mi. (16.1 km)
Clouds Sky clear
Altimeter29.84 in.Hg (1010 mB)
Relative humidity21 %
Density altitude1,660 ft. (506 m)
Remarks Fully automated report
Automated weather observing station with precipitation discriminator
Present weather sensor not operating
Flight conditions Visual Meteorological Conditions
Raw dataKGLE 252035Z AUTO 24010KT 10SM CLR 28/03 A2984 RMK AO2 T02760030 PWINO
An error has occurred. This application may no longer respond until reloaded. Reload 🗙